createdAt,value
2022-12-08T00:02:04.323Z,101098.81
2022-12-08T00:05:25.070Z,101097.59
2022-12-08T00:08:45.895Z,101090.84
2022-12-08T00:11:49.609Z,101089.31
2022-12-08T00:14:51.750Z,101085.44
2022-12-08T00:17:53.813Z,101079.34
2022-12-08T00:20:57.238Z,101098.59
2022-12-08T00:23:59.417Z,101099.03
2022-12-08T00:27:02.860Z,101107.72
2022-12-08T00:30:05.953Z,101104.31
2022-12-08T00:33:08.211Z,101102.13
2022-12-08T00:36:13.212Z,101112.72
2022-12-08T00:39:16.876Z,101112.69
2022-12-08T00:42:20.228Z,101125.53
2022-12-08T00:45:22.339Z,101113.19
2022-12-08T00:48:24.456Z,101106.41
2022-12-08T00:51:26.568Z,101112.16
2022-12-08T00:54:28.759Z,101125.28
2022-12-08T00:57:31.175Z,101125.75
2022-12-08T01:00:33.333Z,101133.22
2022-12-08T01:03:35.474Z,101115.69
2022-12-08T01:06:38.494Z,101097.94
2022-12-08T01:09:40.668Z,101132.50
2022-12-08T01:12:42.951Z,101106.91
2022-12-08T01:15:44.845Z,101127.66
2022-12-08T01:18:47.697Z,101123.97
2022-12-08T01:21:49.820Z,101118.19
2022-12-08T01:24:52.018Z,101109.63
2022-12-08T01:27:54.205Z,101111.34
2022-12-08T01:30:56.605Z,101115.72
2022-12-08T01:33:58.909Z,101096.63
2022-12-08T01:37:01.075Z,101108.75
2022-12-08T01:40:03.768Z,101110.09
2022-12-08T01:43:06.874Z,101126.47
2022-12-08T01:46:08.982Z,101113.78
2022-12-08T01:49:20.956Z,101134.22
2022-12-08T01:52:39.372Z,101114.47
2022-12-08T01:55:56.030Z,101127.63
2022-12-08T01:58:58.609Z,101120.03
2022-12-08T02:02:01.113Z,101116.00
2022-12-08T02:05:04.077Z,101138.41
2022-12-08T02:08:12.787Z,101131.16
2022-12-08T02:11:14.895Z,101114.97
2022-12-08T02:14:17.233Z,101121.22
2022-12-08T02:17:31.435Z,101123.59
2022-12-08T02:20:58.230Z,101127.72
2022-12-08T02:24:15.086Z,101116.25
2022-12-08T02:27:45.281Z,101120.00
2022-12-08T02:31:13.419Z,101127.44
2022-12-08T02:34:30.379Z,101103.53
2022-12-08T02:37:40.131Z,101117.25
2022-12-08T02:40:44.904Z,101126.50
2022-12-08T02:43:54.899Z,101109.16
2022-12-08T02:47:02.422Z,101135.28
2022-12-08T02:50:05.720Z,101116.50
2022-12-08T02:56:15.807Z,101147.25
2022-12-08T02:59:23.474Z,101145.97
2022-12-08T03:02:43.632Z,101150.78
2022-12-08T03:06:10.189Z,101157.59
2022-12-08T03:09:39.146Z,101140.78
2022-12-08T03:12:49.797Z,101142.31
2022-12-08T03:15:57.162Z,101151.88
2022-12-08T03:19:13.652Z,101150.41
2022-12-08T03:22:20.051Z,101165.78
2022-12-08T03:25:24.633Z,101167.44
2022-12-08T03:28:28.922Z,101142.66
2022-12-08T03:31:36.047Z,101154.94
2022-12-08T03:34:42.504Z,101165.50
2022-12-08T03:37:44.554Z,101144.09
2022-12-08T03:41:09.563Z,101165.88
2022-12-08T03:44:11.905Z,101173.19
2022-12-08T03:47:14.023Z,101173.97
2022-12-08T03:50:16.389Z,101179.03
2022-12-08T03:53:18.590Z,101172.34
2022-12-08T03:56:36.968Z,101188.03
2022-12-08T03:59:40.775Z,101178.06
2022-12-08T04:02:43.643Z,101173.50
2022-12-08T04:05:46.080Z,101166.88
2022-12-08T04:08:48.896Z,101183.13
2022-12-08T04:11:51.495Z,101182.09
2022-12-08T04:14:53.567Z,101169.63
2022-12-08T04:17:56.010Z,101174.84
2022-12-08T04:20:58.155Z,101165.03
2022-12-08T04:24:01.519Z,101168.69
2022-12-08T04:27:05.975Z,101176.66
2022-12-08T04:30:09.429Z,101161.03
2022-12-08T04:33:12.084Z,101161.56
2022-12-08T04:36:18.972Z,101163.09
2022-12-08T04:39:21.307Z,101153.66
2022-12-08T04:42:23.297Z,101152.06
2022-12-08T04:45:25.551Z,101144.72
2022-12-08T04:48:27.722Z,101129.50
2022-12-08T04:51:31.153Z,101158.50
2022-12-08T04:54:33.377Z,101171.53
2022-12-08T04:57:35.497Z,101143.19
2022-12-08T05:00:37.831Z,101159.06
2022-12-08T05:03:39.940Z,101175.91
2022-12-08T05:06:41.972Z,101169.06
2022-12-08T05:09:45.031Z,101171.09
2022-12-08T05:12:47.051Z,101163.94
2022-12-08T05:15:49.297Z,101169.97
2022-12-08T05:18:51.386Z,101182.09
2022-12-08T05:21:53.418Z,101174.84
2022-12-08T05:24:57.024Z,101188.75
2022-12-08T05:28:24.609Z,101188.88
2022-12-08T05:31:21.530Z,101186.97
2022-12-08T05:34:23.661Z,101197.56
2022-12-08T05:37:25.735Z,101208.88
2022-12-08T05:40:27.765Z,101193.22
2022-12-08T05:43:29.894Z,101196.25
2022-12-08T05:46:32.178Z,101207.75
2022-12-08T05:49:34.167Z,101219.41
2022-12-08T05:52:36.246Z,101220.28
2022-12-08T05:55:38.366Z,101233.06
2022-12-08T05:58:40.617Z,101222.63
2022-12-08T06:01:42.982Z,101232.34
2022-12-08T06:04:45.407Z,101226.59
2022-12-08T06:07:47.560Z,101222.88
2022-12-08T06:10:49.884Z,101227.97
2022-12-08T06:13:52.577Z,101228.66
2022-12-08T06:16:54.825Z,101246.00
2022-12-08T06:19:56.979Z,101256.19
2022-12-08T06:22:59.032Z,101252.41
2022-12-08T06:26:02.950Z,101259.50
2022-12-08T06:29:05.195Z,101266.41
2022-12-08T06:32:07.394Z,101258.44
2022-12-08T06:35:09.946Z,101262.84
2022-12-08T06:38:12.118Z,101248.50
2022-12-08T06:41:14.280Z,101267.41
2022-12-08T06:44:16.384Z,101259.66
2022-12-08T06:47:22.089Z,101260.09
2022-12-08T06:50:26.822Z,101250.59
2022-12-08T06:53:28.929Z,101265.22
2022-12-08T06:56:31.140Z,101255.81
2022-12-08T06:59:33.230Z,101259.56
2022-12-08T07:02:35.595Z,101254.53
2022-12-08T07:05:41.349Z,101265.88
2022-12-08T07:08:43.982Z,101284.69
2022-12-08T07:11:47.179Z,101276.69
2022-12-08T07:14:49.377Z,101273.50
2022-12-08T07:17:57.904Z,101280.72
2022-12-08T07:21:10.603Z,101297.66
2022-12-08T07:24:13.246Z,101295.41
2022-12-08T07:27:16.039Z,101284.84
2022-12-08T07:30:18.127Z,101286.88
2022-12-08T07:33:20.684Z,101302.03
2022-12-08T07:36:23.143Z,101281.78
2022-12-08T07:39:25.186Z,101284.81
2022-12-08T07:42:27.292Z,101293.47
2022-12-08T07:45:31.763Z,101263.81
2022-12-08T07:48:34.958Z,101305.50
2022-12-08T07:51:37.122Z,101291.66
2022-12-08T07:54:39.144Z,101280.16
2022-12-08T07:57:41.286Z,101289.25
2022-12-08T08:00:44.347Z,101304.03
2022-12-08T08:03:46.439Z,101286.53
2022-12-08T08:06:48.538Z,101307.88
2022-12-08T08:09:50.799Z,101296.22
2022-12-08T08:12:53.257Z,101309.13
2022-12-08T08:15:55.454Z,101286.94
2022-12-08T08:18:57.753Z,101304.31
2022-12-08T08:21:59.805Z,101299.94
2022-12-08T08:25:01.949Z,101297.56
2022-12-08T08:28:04.212Z,101307.22
2022-12-08T08:31:07.879Z,101314.81
2022-12-08T08:34:10.099Z,101318.94
2022-12-08T08:37:12.279Z,101304.88
2022-12-08T08:40:14.525Z,101302.63
2022-12-08T08:43:34.477Z,101306.84
2022-12-08T08:46:40.117Z,101316.94
2022-12-08T08:49:42.298Z,101314.53
2022-12-08T08:52:45.048Z,101295.88
2022-12-08T08:55:47.754Z,101289.91
2022-12-08T08:58:50.795Z,101282.97
2022-12-08T09:01:53.687Z,101286.91
2022-12-08T09:04:56.014Z,101295.28
2022-12-08T09:07:58.409Z,101294.28
2022-12-08T09:11:00.774Z,101292.84
2022-12-08T09:14:03.577Z,101295.53
2022-12-08T09:17:08.820Z,101284.50
2022-12-08T09:20:11.223Z,101283.13
2022-12-08T09:23:13.440Z,101276.91
2022-12-08T09:26:15.692Z,101257.69
2022-12-08T09:29:17.953Z,101281.28
2022-12-08T09:32:20.469Z,101283.16
2022-12-08T09:35:22.843Z,101282.44
2022-12-08T09:38:25.117Z,101278.97
2022-12-08T09:41:41.831Z,101259.81
2022-12-08T09:45:15.795Z,101286.34
2022-12-08T09:48:23.141Z,101287.81
2022-12-08T09:51:27.632Z,101288.53
2022-12-08T09:54:35.913Z,101280.16
2022-12-08T09:57:38.348Z,101283.09
2022-12-08T10:00:40.491Z,101269.47
2022-12-08T10:03:45.504Z,101286.13
2022-12-08T10:07:08.714Z,101280.72
2022-12-08T10:10:26.689Z,101284.84
2022-12-08T10:13:51.915Z,101273.44
2022-12-08T10:17:04.049Z,101270.19
2022-12-08T10:20:36.061Z,101263.31
2022-12-08T10:23:41.199Z,101249.53
2022-12-08T10:26:43.474Z,101237.06
2022-12-08T10:29:45.698Z,101247.69
2022-12-08T10:32:53.532Z,101252.72
2022-12-08T10:35:59.303Z,101246.81
2022-12-08T10:39:01.598Z,101242.84
2022-12-08T10:42:08.825Z,101263.19
2022-12-08T10:45:10.814Z,101253.31
2022-12-08T10:48:30.801Z,101264.63
2022-12-08T10:51:41.365Z,101269.22
2022-12-08T10:54:50.227Z,101266.19
2022-12-08T10:57:53.252Z,101267.63
2022-12-08T11:04:26.212Z,101273.44
2022-12-08T11:07:30.605Z,101254.72
2022-12-08T11:10:40.580Z,101271.78
2022-12-08T11:13:43.383Z,101270.41
2022-12-08T11:16:45.911Z,101249.66
2022-12-08T11:20:10.375Z,101259.59
2022-12-08T11:23:24.878Z,101255.63
2022-12-08T11:26:32.881Z,101245.41
2022-12-08T11:29:36.039Z,101226.38
2022-12-08T11:32:41.559Z,101245.28
2022-12-08T11:35:47.781Z,101230.13
2022-12-08T11:38:55.800Z,101245.22
2022-12-08T11:42:00.074Z,101227.66
2022-12-08T11:45:15.009Z,101231.66
2022-12-08T11:48:19.827Z,101251.09
2022-12-08T11:51:30.579Z,101253.38
2022-12-08T11:54:32.546Z,101248.94
2022-12-08T11:57:35.394Z,101243.88
2022-12-08T12:00:37.801Z,101238.66
2022-12-08T12:03:44.853Z,101242.66
2022-12-08T12:07:19.457Z,101236.09
2022-12-08T12:10:40.100Z,101240.19
2022-12-08T12:13:54.062Z,101233.59
2022-12-08T12:17:05.080Z,101221.25
2022-12-08T12:20:24.200Z,101226.16
2022-12-08T12:23:56.749Z,101219.69
2022-12-08T12:27:20.114Z,101216.53
2022-12-08T12:30:28.875Z,101213.66
2022-12-08T12:34:05.547Z,101225.69
2022-12-08T12:37:13.829Z,101217.41
2022-12-08T12:40:22.200Z,101208.56
2022-12-08T12:43:39.211Z,101221.94
2022-12-08T12:47:02.887Z,101221.91
2022-12-08T12:50:07.157Z,101213.38
2022-12-08T12:53:19.290Z,101214.94
2022-12-08T12:56:55.616Z,101231.22
2022-12-08T13:00:00.983Z,101219.63
2022-12-08T13:03:13.352Z,101210.59
2022-12-08T13:06:32.495Z,101207.03
2022-12-08T13:09:40.159Z,101208.75
2022-12-08T13:12:45.550Z,101202.69
2022-12-08T13:20:21.412Z,101203.69
2022-12-08T13:23:41.573Z,101210.13
2022-12-08T13:26:49.467Z,101194.44
2022-12-08T13:30:51.049Z,101204.06
2022-12-08T13:33:57.937Z,101196.06
2022-12-08T13:37:14.368Z,101201.84
2022-12-08T13:40:24.878Z,101204.28
2022-12-08T13:43:47.397Z,101186.91
2022-12-08T13:57:55.993Z,101205.09
2022-12-08T14:01:24.351Z,101209.00
2022-12-08T14:04:54.541Z,101207.25
2022-12-08T14:08:07.326Z,101209.84
2022-12-08T14:11:33.652Z,101195.28
2022-12-08T14:15:14.764Z,101198.19
2022-12-08T14:18:28.021Z,101190.31
2022-12-08T14:21:35.757Z,101208.44
2022-12-08T14:24:39.055Z,101197.97
2022-12-08T14:27:43.791Z,101194.38
2022-12-08T14:30:48.855Z,101202.59
2022-12-08T14:33:56.234Z,101196.59
2022-12-08T14:37:00.259Z,101198.03
2022-12-08T14:40:29.574Z,101194.78
2022-12-08T14:43:32.661Z,101190.69
2022-12-08T14:46:34.738Z,101195.53
2022-12-08T14:49:39.361Z,101202.31
2022-12-08T14:52:44.907Z,101206.03
2022-12-08T14:55:48.478Z,101202.28
2022-12-08T14:59:06.002Z,101202.53
2022-12-08T15:02:19.662Z,101203.34
2022-12-08T15:05:26.812Z,101202.69
2022-12-08T15:08:29.555Z,101193.03
2022-12-08T15:11:34.872Z,101196.75
2022-12-08T15:14:41.259Z,101195.06
2022-12-08T15:17:44.903Z,101207.13
2022-12-08T15:20:55.741Z,101201.75
2022-12-08T15:24:00.315Z,101201.84
2022-12-08T15:27:09.170Z,101209.63
2022-12-08T15:30:15.602Z,101211.06
2022-12-08T15:33:18.007Z,101208.00
2022-12-08T15:36:20.029Z,101191.63
2022-12-08T15:39:27.808Z,101193.94
2022-12-08T15:42:30.075Z,101200.56
2022-12-08T15:45:32.785Z,101196.44
2022-12-08T15:48:34.760Z,101195.28
2022-12-08T15:51:37.030Z,101199.53
2022-12-08T15:54:42.146Z,101199.66
2022-12-08T16:01:14.147Z,101208.63
2022-12-08T16:05:11.620Z,101200.78
2022-12-08T16:07:44.453Z,101189.63
2022-12-08T16:11:29.218Z,101203.41
2022-12-08T16:15:01.376Z,101196.44
2022-12-08T16:17:32.500Z,101212.22
2022-12-08T16:24:17.719Z,101223.00
2022-12-08T16:30:46.575Z,101218.88
2022-12-08T16:33:48.662Z,101214.50
2022-12-08T16:36:52.767Z,101211.31
2022-12-08T16:39:58.621Z,101212.22
2022-12-08T16:43:01.969Z,101205.88
2022-12-08T16:46:04.278Z,101192.97
2022-12-08T16:49:09.183Z,101193.22
2022-12-08T16:52:11.452Z,101180.88
2022-12-08T16:55:17.199Z,101176.22
2022-12-08T16:58:19.716Z,101177.28
2022-12-08T17:01:26.144Z,101199.22
2022-12-08T17:04:31.970Z,101192.97
2022-12-08T17:07:35.904Z,101201.16
2022-12-08T17:10:39.835Z,101192.00
2022-12-08T17:13:42.852Z,101182.38
2022-12-08T17:16:59.720Z,101205.72
2022-12-08T17:20:30.970Z,101201.41
2022-12-08T17:27:52.735Z,101171.03
2022-12-08T17:30:54.973Z,101199.16
2022-12-08T17:34:02.723Z,101199.38
2022-12-08T17:37:06.793Z,101188.91
2022-12-08T17:40:09.942Z,101189.31
2022-12-08T17:43:13.221Z,101199.47
2022-12-08T17:46:22.160Z,101193.06
2022-12-08T17:49:26.198Z,101193.72
2022-12-08T17:52:38.076Z,101202.13
2022-12-08T17:55:41.117Z,101177.47
2022-12-08T17:58:46.523Z,101195.06
2022-12-08T18:01:53.110Z,101197.50
2022-12-08T18:04:55.363Z,101178.16
2022-12-08T18:07:58.287Z,101183.00
2022-12-08T18:11:04.854Z,101168.06
2022-12-08T18:14:12.274Z,101178.59
2022-12-08T18:17:15.562Z,101181.00
2022-12-08T18:20:18.010Z,101184.06
2022-12-08T18:23:20.050Z,101179.41
2022-12-08T18:26:22.738Z,101174.19
2022-12-08T18:29:25.095Z,101163.94
2022-12-08T18:32:27.262Z,101173.75
2022-12-08T18:35:29.754Z,101170.84
2022-12-08T18:38:48.646Z,101174.72
2022-12-08T18:42:23.055Z,101191.31
2022-12-08T18:45:25.186Z,101175.13
2022-12-08T18:48:27.212Z,101171.38
2022-12-08T18:51:29.199Z,101170.66
2022-12-08T18:54:50.069Z,101182.13
2022-12-08T18:57:57.665Z,101180.03
2022-12-08T19:01:00.012Z,101195.94
2022-12-08T19:07:26.743Z,101175.59
2022-12-08T19:10:29.484Z,101183.72
2022-12-08T19:13:31.675Z,101171.38
2022-12-08T19:16:34.162Z,101172.81
2022-12-08T19:19:36.941Z,101172.28
2022-12-08T19:22:39.226Z,101166.50
2022-12-08T19:25:41.560Z,101178.66
2022-12-08T19:28:43.852Z,101178.56
2022-12-08T19:31:47.348Z,101183.97
2022-12-08T19:34:56.098Z,101160.84
2022-12-08T19:38:07.507Z,101189.25
2022-12-08T19:41:28.732Z,101186.44
2022-12-08T19:44:52.802Z,101153.06
2022-12-08T19:47:55.243Z,101171.94
2022-12-08T19:50:57.823Z,101170.13
2022-12-08T19:53:59.953Z,101180.41
2022-12-08T19:57:02.666Z,101168.72
2022-12-08T20:00:06.451Z,101178.75
2022-12-08T20:03:20.763Z,101171.56
2022-12-08T20:06:27.038Z,101166.47
2022-12-08T20:09:29.242Z,101155.91
2022-12-08T20:12:31.362Z,101151.78
2022-12-08T20:15:33.562Z,101127.88
2022-12-08T20:18:39.923Z,101122.06
2022-12-08T20:21:42.433Z,101119.69
2022-12-08T20:24:46.887Z,101113.66
2022-12-08T20:27:51.070Z,101114.81
2022-12-08T20:30:53.624Z,101126.22
2022-12-08T20:33:56.043Z,101123.50
2022-12-08T20:36:59.913Z,101120.53
2022-12-08T20:40:02.127Z,101115.94
2022-12-08T20:43:04.237Z,101097.44
2022-12-08T20:46:07.720Z,101114.72
2022-12-08T20:49:09.930Z,101138.88
2022-12-08T20:52:13.198Z,101126.13
2022-12-08T20:55:15.400Z,101099.38
2022-12-08T20:58:17.587Z,101124.28
2022-12-08T21:01:23.449Z,101111.25
2022-12-08T21:04:26.017Z,101098.31
2022-12-08T21:07:28.457Z,101101.91
2022-12-08T21:10:30.829Z,101103.50
2022-12-08T21:13:33.934Z,101091.06
2022-12-08T21:16:36.595Z,101104.63
2022-12-08T21:19:39.098Z,101075.63
2022-12-08T21:22:41.399Z,101087.63
2022-12-08T21:25:46.667Z,101090.19
2022-12-08T21:28:50.638Z,101077.25
2022-12-08T21:31:53.459Z,101078.25
2022-12-08T21:34:56.116Z,101060.56
2022-12-08T21:37:58.306Z,101066.00
2022-12-08T21:41:05.671Z,101065.78
2022-12-08T21:44:11.923Z,101075.94
2022-12-08T21:47:14.056Z,101061.16
2022-12-08T21:50:18.097Z,101066.38
2022-12-08T21:53:21.930Z,101067.69
2022-12-08T21:56:25.219Z,101070.75
2022-12-08T21:59:52.427Z,101072.47
2022-12-08T22:02:54.934Z,101064.59
2022-12-08T22:05:57.293Z,101072.28
2022-12-08T22:08:59.675Z,101074.75
2022-12-08T22:12:02.094Z,101053.03
2022-12-08T22:15:08.814Z,101033.72
2022-12-08T22:18:11.818Z,101028.50
2022-12-08T22:21:17.272Z,101030.59
2022-12-08T22:24:19.483Z,101033.06
2022-12-08T22:27:22.931Z,101032.22
2022-12-08T22:30:27.513Z,101007.06
2022-12-08T22:33:30.318Z,101010.75
2022-12-08T22:36:32.811Z,101003.53
2022-12-08T22:39:36.073Z,101023.13
2022-12-08T22:42:38.110Z,101011.97
2022-12-08T22:45:40.266Z,101010.63
2022-12-08T22:48:43.232Z,101027.69
2022-12-08T22:51:45.728Z,101015.91
2022-12-08T22:54:48.881Z,100996.00
2022-12-08T22:57:51.123Z,101011.63
2022-12-08T23:00:53.307Z,100990.09
2022-12-08T23:03:56.062Z,100997.94
2022-12-08T23:06:58.488Z,100990.97
2022-12-08T23:10:00.544Z,100998.78
2022-12-08T23:13:04.202Z,100999.97
2022-12-08T23:16:10.340Z,100991.91
2022-12-08T23:19:12.870Z,100994.75
2022-12-08T23:22:15.125Z,100993.56
2022-12-08T23:25:18.629Z,100986.91
2022-12-08T23:28:20.770Z,100989.38
2022-12-08T23:31:23.599Z,100979.31
2022-12-08T23:34:25.930Z,101004.44
2022-12-08T23:37:30.005Z,101007.78
2022-12-08T23:40:32.361Z,101003.66
2022-12-08T23:43:35.416Z,101009.34
2022-12-08T23:46:37.847Z,100991.03
2022-12-08T23:49:40.026Z,101000.44
2022-12-08T23:52:42.146Z,100985.28
2022-12-08T23:56:13.287Z,100999.97
2022-12-08T23:59:16.561Z,100968.13
